createdAt,value
2019-01-23T00:01:33.375Z,-2.00
2019-01-23T00:04:00.356Z,-2.10
2019-01-23T00:06:27.334Z,-2.10
2019-01-23T00:08:54.427Z,-2.10
2019-01-23T00:11:22.611Z,-2.10
2019-01-23T00:13:49.991Z,-2.20
2019-01-23T00:16:17.192Z,-2.20
2019-01-23T00:18:44.359Z,-2.20
2019-01-23T00:21:11.612Z,-2.20
2019-01-23T00:23:38.912Z,-2.20
2019-01-23T00:26:06.244Z,-2.20
2019-01-23T00:28:33.472Z,-2.20
2019-01-23T00:31:00.502Z,-2.20
2019-01-23T00:33:27.779Z,-2.30
2019-01-23T00:35:54.931Z,-2.30
2019-01-23T00:38:22.052Z,-2.40
2019-01-23T00:40:49.011Z,-2.40
2019-01-23T00:43:16.623Z,-2.30
2019-01-23T00:45:43.712Z,-2.40
2019-01-23T00:48:11.195Z,-2.40
2019-01-23T00:50:38.487Z,-2.50
2019-01-23T00:53:05.681Z,-2.50
2019-01-23T00:55:32.782Z,-2.50
2019-01-23T00:58:00.187Z,-2.40
2019-01-23T01:00:27.474Z,-2.50
2019-01-23T01:02:54.925Z,-2.40
2019-01-23T01:05:23.351Z,-2.50
2019-01-23T01:07:51.304Z,-2.50
2019-01-23T01:10:18.713Z,-2.50
2019-01-23T01:12:46.306Z,-2.50
2019-01-23T01:15:13.971Z,-2.50
2019-01-23T01:17:41.288Z,-2.50
2019-01-23T01:20:08.926Z,-2.50
2019-01-23T01:22:36.203Z,-2.50
2019-01-23T01:25:05.269Z,-2.50
2019-01-23T01:27:33.072Z,-2.60
2019-01-23T01:30:00.295Z,-2.60
2019-01-23T01:32:27.569Z,-2.60
2019-01-23T01:34:54.690Z,-2.60
2019-01-23T01:37:21.759Z,-2.60
2019-01-23T01:39:48.777Z,-2.60
2019-01-23T01:42:15.971Z,-2.60
2019-01-23T01:44:43.322Z,-2.70
2019-01-23T01:47:10.474Z,-2.70
2019-01-23T01:49:37.466Z,-2.70
2019-01-23T01:52:04.792Z,-2.70
2019-01-23T01:54:32.233Z,-2.70
2019-01-23T01:56:59.371Z,-2.80
2019-01-23T01:59:26.456Z,-2.80
2019-01-23T02:01:54.547Z,-2.80
2019-01-23T02:04:21.483Z,-2.80
2019-01-23T02:06:48.441Z,-2.90
2019-01-23T02:09:15.602Z,-2.80
2019-01-23T02:11:42.649Z,-2.80
2019-01-23T02:14:09.659Z,-2.80
2019-01-23T02:16:37.074Z,-2.90
2019-01-23T02:19:04.076Z,-2.90
2019-01-23T02:21:31.549Z,-2.90
2019-01-23T02:23:58.730Z,-2.90
2019-01-23T02:26:26.113Z,-2.90
2019-01-23T02:28:53.236Z,-2.90
2019-01-23T02:31:20.866Z,-2.90
2019-01-23T02:33:47.945Z,-3.00
2019-01-23T02:36:15.040Z,-3.00
2019-01-23T02:38:42.523Z,-3.10
2019-01-23T02:41:09.955Z,-3.00
2019-01-23T02:43:37.671Z,-3.10
2019-01-23T02:46:05.510Z,-3.10
2019-01-23T02:48:32.581Z,-3.00
2019-01-23T02:50:59.572Z,-3.10
2019-01-23T02:53:26.883Z,-3.10
2019-01-23T02:55:54.108Z,-3.10
2019-01-23T02:58:21.129Z,-3.20
2019-01-23T03:00:48.202Z,-3.10
2019-01-23T03:03:15.536Z,-3.10
2019-01-23T03:05:42.577Z,-3.20
2019-01-23T03:08:09.863Z,-3.20
2019-01-23T03:10:37.371Z,-3.20
2019-01-23T03:13:04.639Z,-3.20
2019-01-23T03:15:31.605Z,-3.20
2019-01-23T03:17:58.740Z,-3.30
2019-01-23T03:20:25.928Z,-3.30
2019-01-23T03:22:53.546Z,-3.30
2019-01-23T03:25:20.689Z,-3.30
2019-01-23T03:27:48.002Z,-3.40
2019-01-23T03:30:17.742Z,-3.40
2019-01-23T03:32:44.992Z,-3.40
2019-01-23T03:35:12.696Z,-3.40
2019-01-23T03:37:39.948Z,-3.40
2019-01-23T03:40:10.248Z,-3.40
2019-01-23T03:42:37.487Z,-3.40
2019-01-23T03:45:06.606Z,-3.40
2019-01-23T03:47:33.631Z,-3.50
2019-01-23T03:50:00.780Z,-3.50
2019-01-23T03:52:28.987Z,-3.50
2019-01-23T03:54:56.269Z,-3.50
2019-01-23T03:57:23.679Z,-3.60
2019-01-23T03:59:51.088Z,-3.60
2019-01-23T04:02:18.254Z,-3.60
2019-01-23T04:04:45.329Z,-3.60
2019-01-23T04:07:12.722Z,-3.60
2019-01-23T04:09:39.871Z,-3.50
2019-01-23T04:12:07.055Z,-3.50
2019-01-23T04:14:34.064Z,-3.60
2019-01-23T04:17:01.310Z,-3.60
2019-01-23T04:19:28.342Z,-3.60
2019-01-23T04:21:55.385Z,-3.70
2019-01-23T04:24:22.771Z,-3.60
2019-01-23T04:26:49.750Z,-3.60
2019-01-23T04:29:16.952Z,-3.70
2019-01-23T04:31:43.907Z,-3.70
2019-01-23T04:34:11.363Z,-3.70
2019-01-23T04:36:38.334Z,-3.70
2019-01-23T04:39:07.143Z,-3.70
2019-01-23T04:41:34.743Z,-3.70
2019-01-23T04:44:01.701Z,-3.70
2019-01-23T04:46:28.679Z,-3.70
2019-01-23T04:48:55.710Z,-3.60
2019-01-23T04:51:42.346Z,-3.70
2019-01-23T04:54:13.287Z,-3.70
2019-01-23T04:56:40.351Z,-3.70
2019-01-23T04:59:07.322Z,-3.70
2019-01-23T05:01:34.712Z,-3.60
2019-01-23T05:04:02.068Z,-3.60
2019-01-23T05:06:29.070Z,-3.60
2019-01-23T05:08:56.058Z,-3.60
2019-01-23T05:11:23.734Z,-3.60
2019-01-23T05:13:51.079Z,-3.60
2019-01-23T05:16:18.095Z,-3.60
2019-01-23T05:18:45.172Z,-3.50
2019-01-23T05:21:12.610Z,-3.50
2019-01-23T05:23:39.665Z,-3.50
2019-01-23T05:26:06.772Z,-3.50
2019-01-23T05:28:33.954Z,-3.60
2019-01-23T05:31:01.027Z,-3.50
2019-01-23T05:33:28.071Z,-3.60
2019-01-23T05:35:55.347Z,-3.50
2019-01-23T05:38:22.318Z,-3.60
2019-01-23T05:40:49.291Z,-3.60
2019-01-23T05:43:16.722Z,-3.60
2019-01-23T05:45:43.707Z,-3.60
2019-01-23T05:48:10.666Z,-3.60
2019-01-23T05:50:37.655Z,-3.70
2019-01-23T05:53:05.379Z,-3.70
2019-01-23T05:55:32.935Z,-3.70
2019-01-23T05:57:59.987Z,-3.70
2019-01-23T06:00:27.241Z,-3.80
2019-01-23T06:02:54.248Z,-3.90
2019-01-23T06:05:22.154Z,-3.90
2019-01-23T06:07:49.255Z,-3.90
2019-01-23T06:10:16.880Z,-3.90
2019-01-23T06:12:44.490Z,-3.90
2019-01-23T06:15:12.158Z,-3.80
2019-01-23T06:17:39.555Z,-3.80
2019-01-23T06:20:09.231Z,-3.80
2019-01-23T06:22:36.266Z,-3.90
2019-01-23T06:25:04.691Z,-3.90
2019-01-23T06:27:31.907Z,-3.90
2019-01-23T06:29:59.429Z,-3.90
2019-01-23T06:32:26.531Z,-4.00
2019-01-23T06:34:53.625Z,-4.00
2019-01-23T06:37:20.686Z,-4.00
2019-01-23T06:39:47.931Z,-3.90
2019-01-23T06:42:15.067Z,-3.90
2019-01-23T06:44:42.049Z,-3.80
2019-01-23T06:47:09.059Z,-3.80
2019-01-23T06:49:36.772Z,-3.90
2019-01-23T06:52:03.888Z,-3.90
2019-01-23T06:54:30.998Z,-3.90
2019-01-23T06:56:58.285Z,-3.90
2019-01-23T06:59:25.583Z,-3.90
2019-01-23T07:01:52.705Z,-3.90
2019-01-23T07:04:19.762Z,-3.90
2019-01-23T07:06:46.771Z,-3.90
2019-01-23T07:09:14.186Z,-3.90
2019-01-23T07:11:41.358Z,-3.90
2019-01-23T07:14:09.562Z,-3.80
2019-01-23T07:16:36.815Z,-3.90
2019-01-23T07:19:04.301Z,-3.90
2019-01-23T07:21:31.254Z,-3.90
2019-01-23T07:23:58.370Z,-4.00
2019-01-23T07:26:26.383Z,-3.90
2019-01-23T07:28:53.805Z,-4.00
2019-01-23T07:31:20.852Z,-3.90
2019-01-23T07:33:47.835Z,-3.90
2019-01-23T07:36:14.831Z,-3.90
2019-01-23T07:38:41.891Z,-3.90
2019-01-23T07:41:08.892Z,-3.90
2019-01-23T07:43:36.136Z,-3.90
2019-01-23T07:46:03.978Z,-3.90
2019-01-23T07:48:31.025Z,-3.90
2019-01-23T07:50:58.050Z,-3.90
2019-01-23T07:53:25.089Z,-3.90
2019-01-23T07:55:52.194Z,-3.80
2019-01-23T07:58:19.318Z,-3.80
2019-01-23T08:00:46.557Z,-3.70
2019-01-23T08:03:13.538Z,-3.70
2019-01-23T08:05:40.553Z,-3.80
2019-01-23T08:08:07.621Z,-3.80
2019-01-23T08:10:34.595Z,-3.80
2019-01-23T08:13:01.595Z,-3.80
2019-01-23T08:15:33.382Z,-3.80
2019-01-23T08:18:00.474Z,-3.70
2019-01-23T08:20:27.683Z,-3.70
2019-01-23T08:22:54.798Z,-3.70
2019-01-23T08:25:22.188Z,-3.70
2019-01-23T08:27:49.365Z,-3.70
2019-01-23T08:30:18.247Z,-3.60
2019-01-23T08:32:45.620Z,-3.70
2019-01-23T08:35:13.463Z,-3.60
2019-01-23T08:37:40.560Z,-3.60
2019-01-23T08:40:09.945Z,-3.60
2019-01-23T08:42:37.190Z,-3.60
2019-01-23T08:45:05.158Z,-3.60
2019-01-23T08:47:32.258Z,-3.60
2019-01-23T08:49:59.563Z,-3.60
2019-01-23T08:52:26.535Z,-3.60
2019-01-23T08:54:53.523Z,-3.60
2019-01-23T08:57:20.554Z,-3.60
2019-01-23T08:59:47.532Z,-3.60
2019-01-23T09:02:14.547Z,-3.60
2019-01-23T09:04:41.539Z,-3.60
2019-01-23T09:07:08.524Z,-3.50
2019-01-23T09:09:35.863Z,-3.50
2019-01-23T09:12:03.347Z,-3.50
2019-01-23T09:14:30.815Z,-3.40
2019-01-23T09:16:58.491Z,-3.40
2019-01-23T09:19:25.824Z,-3.30
2019-01-23T09:21:53.009Z,-3.30
2019-01-23T09:24:20.327Z,-3.40
2019-01-23T09:26:47.318Z,-3.40
2019-01-23T09:29:14.430Z,-3.30
2019-01-23T09:32:06.301Z,-3.30
2019-01-23T09:34:39.044Z,-3.30
2019-01-23T09:37:24.628Z,-3.20
2019-01-23T09:39:57.985Z,-3.20
2019-01-23T09:42:53.909Z,-3.10
2019-01-23T09:46:05.050Z,-3.10
2019-01-23T09:49:02.255Z,-3.10
2019-01-23T09:52:10.057Z,-3.00
2019-01-23T09:54:37.032Z,-3.10
2019-01-23T09:57:04.458Z,-3.10
2019-01-23T09:59:31.941Z,-3.10
2019-01-23T10:01:59.009Z,-3.20
2019-01-23T10:04:26.058Z,-3.20
2019-01-23T10:06:53.630Z,-3.20
2019-01-23T10:09:20.719Z,-3.20
2019-01-23T10:11:48.115Z,-3.20
2019-01-23T10:14:15.556Z,-3.20
2019-01-23T10:16:43.123Z,-3.10
2019-01-23T10:19:10.287Z,-3.10
2019-01-23T10:21:37.597Z,-3.00
2019-01-23T10:24:04.798Z,-3.10
2019-01-23T10:26:31.832Z,-3.10
2019-01-23T10:28:58.954Z,-3.00
2019-01-23T10:31:25.998Z,-3.00
2019-01-23T10:33:53.147Z,-3.00
2019-01-23T10:36:20.396Z,-2.90
2019-01-23T10:38:47.519Z,-2.90
2019-01-23T10:41:14.634Z,-2.90
2019-01-23T10:43:41.887Z,-2.80
2019-01-23T10:46:09.047Z,-2.80
2019-01-23T10:48:38.123Z,-2.70
2019-01-23T10:51:05.380Z,-2.60
2019-01-23T10:53:32.541Z,-2.60
2019-01-23T10:56:00.130Z,-2.60
2019-01-23T10:58:35.301Z,-2.50
2019-01-23T11:01:04.925Z,-2.60
2019-01-23T11:03:32.216Z,-2.50
2019-01-23T11:05:59.397Z,-2.30
2019-01-23T11:08:26.554Z,-2.10
2019-01-23T11:10:53.566Z,-2.20
2019-01-23T11:13:20.779Z,-2.20
2019-01-23T11:15:47.826Z,-2.10
2019-01-23T11:18:14.874Z,-2.20
2019-01-23T11:20:41.920Z,-2.20
2019-01-23T11:23:09.110Z,-2.20
2019-01-23T11:25:36.191Z,-2.20
2019-01-23T11:28:03.670Z,-2.20
2019-01-23T11:30:30.762Z,-2.20
2019-01-23T11:32:57.770Z,-2.10
2019-01-23T11:35:25.039Z,-1.80
2019-01-23T11:37:52.350Z,-2.00
2019-01-23T11:40:22.207Z,-1.80
2019-01-23T11:42:49.487Z,-1.80
2019-01-23T11:45:16.588Z,-1.70
2019-01-23T11:47:44.009Z,-1.80
2019-01-23T11:50:12.131Z,-1.60
2019-01-23T11:52:39.442Z,-1.70
2019-01-23T11:55:07.656Z,-1.70
2019-01-23T11:57:34.714Z,-1.70
2019-01-23T12:00:01.956Z,-1.80
2019-01-23T12:02:30.919Z,-1.80
2019-01-23T12:04:58.436Z,-1.90
2019-01-23T12:07:25.587Z,-2.00
2019-01-23T12:09:52.638Z,-1.80
2019-01-23T12:12:19.638Z,-1.80
2019-01-23T12:14:47.698Z,-1.50
2019-01-23T12:17:14.712Z,-1.50
2019-01-23T12:19:41.938Z,-1.80
2019-01-23T12:22:08.933Z,-1.80
2019-01-23T12:24:35.907Z,-1.60
2019-01-23T12:27:03.316Z,-1.30
2019-01-23T12:29:30.604Z,-1.20
2019-01-23T12:31:58.534Z,-1.50
2019-01-23T12:34:25.590Z,-1.60
2019-01-23T12:36:52.630Z,-1.80
2019-01-23T12:39:19.629Z,-1.80
2019-01-23T12:41:47.027Z,-1.70
2019-01-23T12:44:14.175Z,-1.50
2019-01-23T12:46:41.222Z,-1.40
2019-01-23T12:49:08.441Z,-1.60
2019-01-23T12:51:35.418Z,-1.60
2019-01-23T12:54:02.891Z,-1.70
2019-01-23T12:56:30.072Z,-1.70
2019-01-23T12:58:57.227Z,-1.70
2019-01-23T13:01:24.375Z,-1.90
2019-01-23T13:03:51.793Z,-1.70
2019-01-23T13:06:19.946Z,-1.70
2019-01-23T13:08:47.398Z,-1.70
2019-01-23T13:11:14.607Z,-1.70
2019-01-23T13:13:41.887Z,-1.70
2019-01-23T13:16:09.191Z,-1.80
2019-01-23T13:18:36.664Z,-2.00
2019-01-23T13:21:03.999Z,-2.10
2019-01-23T13:23:31.045Z,-2.30
2019-01-23T13:25:58.122Z,-2.30
2019-01-23T13:28:28.220Z,-2.30
2019-01-23T13:30:55.201Z,-2.20
2019-01-23T13:33:22.290Z,-2.20
2019-01-23T13:35:49.265Z,-2.10
2019-01-23T13:38:17.743Z,-2.20
2019-01-23T13:40:45.068Z,-2.10
2019-01-23T13:43:12.133Z,-2.10
2019-01-23T13:45:39.299Z,-2.20
2019-01-23T13:48:08.339Z,-2.30
2019-01-23T13:50:35.709Z,-2.30
2019-01-23T13:53:02.996Z,-2.20
2019-01-23T13:55:30.322Z,-2.20
2019-01-23T13:57:57.397Z,-2.20
2019-01-23T14:00:27.396Z,-2.20
2019-01-23T14:02:54.546Z,-2.10
2019-01-23T14:05:21.927Z,-2.00
2019-01-23T14:07:49.383Z,-2.00
2019-01-23T14:10:16.896Z,-2.10
2019-01-23T14:12:44.305Z,-2.10
2019-01-23T14:15:18.230Z,-2.10
2019-01-23T14:17:45.713Z,-2.10
2019-01-23T14:20:13.254Z,-2.10
2019-01-23T14:22:40.333Z,-2.10
2019-01-23T14:25:09.223Z,-2.10
2019-01-23T14:27:36.235Z,-2.00
2019-01-23T14:30:05.594Z,-2.10
2019-01-23T14:32:32.723Z,-2.10
2019-01-23T14:35:00.238Z,-2.10
2019-01-23T14:37:27.401Z,-2.00
2019-01-23T14:39:54.404Z,-2.00
2019-01-23T14:42:21.362Z,-2.10
2019-01-23T14:44:48.366Z,-2.00
2019-01-23T14:47:15.335Z,-2.00
2019-01-23T14:49:42.416Z,-2.00
2019-01-23T14:52:09.431Z,-2.00
2019-01-23T14:54:36.567Z,-2.00
2019-01-23T14:57:03.832Z,-2.10
2019-01-23T14:59:30.825Z,-2.10
2019-01-23T15:01:57.973Z,-2.10
2019-01-23T15:04:25.641Z,-2.20
2019-01-23T15:06:52.626Z,-2.20
2019-01-23T15:09:19.711Z,-2.20
2019-01-23T15:11:46.851Z,-2.20
2019-01-23T15:14:13.872Z,-2.20
2019-01-23T15:16:40.942Z,-2.20
2019-01-23T15:19:08.050Z,-2.20
2019-01-23T15:21:35.336Z,-2.20
2019-01-23T15:24:02.589Z,-2.20
2019-01-23T15:26:29.811Z,-2.30
2019-01-23T15:28:56.986Z,-2.40
2019-01-23T15:31:24.401Z,-2.40
2019-01-23T15:33:51.431Z,-2.40
2019-01-23T15:36:18.578Z,-2.40
2019-01-23T15:38:45.623Z,-2.40
2019-01-23T15:41:12.867Z,-2.50
2019-01-23T15:43:39.978Z,-2.50
2019-01-23T15:46:07.117Z,-2.50
2019-01-23T15:48:34.791Z,-2.50
2019-01-23T15:51:01.796Z,-2.50
2019-01-23T15:53:28.953Z,-2.60
2019-01-23T15:55:57.124Z,-2.50
2019-01-23T15:58:24.730Z,-2.60
2019-01-23T16:00:51.783Z,-2.70
2019-01-23T16:03:18.908Z,-2.60
2019-01-23T16:05:46.281Z,-2.70
2019-01-23T16:08:13.351Z,-2.70
2019-01-23T16:10:40.880Z,-2.80
2019-01-23T16:13:07.937Z,-2.80
2019-01-23T16:15:35.291Z,-2.90
2019-01-23T16:18:02.627Z,-2.90
2019-01-23T16:20:29.677Z,-3.00
2019-01-23T16:22:57.310Z,-3.00
2019-01-23T16:25:24.387Z,-3.00
2019-01-23T16:27:52.341Z,-3.00
2019-01-23T16:30:31.765Z,-3.10
2019-01-23T16:32:59.351Z,-3.10
2019-01-23T16:35:27.511Z,-3.10
2019-01-23T16:37:54.747Z,-3.20
2019-01-23T16:40:22.030Z,-3.20
2019-01-23T16:42:49.204Z,-3.20
2019-01-23T16:45:16.920Z,-3.20
2019-01-23T16:47:44.029Z,-3.20
2019-01-23T16:50:14.409Z,-3.10
2019-01-23T16:52:41.687Z,-3.20
2019-01-23T16:55:09.003Z,-3.10
2019-01-23T16:57:36.206Z,-3.10
2019-01-23T17:00:06.167Z,-3.20
2019-01-23T17:02:38.591Z,-3.20
2019-01-23T17:05:06.334Z,-3.20
2019-01-23T17:07:33.516Z,-3.20
2019-01-23T17:10:00.940Z,-3.10
2019-01-23T17:12:27.906Z,-3.10
2019-01-23T17:14:55.231Z,-3.10
2019-01-23T17:17:22.288Z,-3.20
2019-01-23T17:19:49.278Z,-3.20
2019-01-23T17:22:16.678Z,-3.20
2019-01-23T17:24:43.755Z,-3.20
2019-01-23T17:27:10.943Z,-3.30
2019-01-23T17:29:38.019Z,-3.20
2019-01-23T17:32:05.515Z,-3.20
2019-01-23T17:34:32.582Z,-3.10
2019-01-23T17:36:59.714Z,-3.20
2019-01-23T17:39:26.815Z,-3.20
2019-01-23T17:41:54.041Z,-3.20
2019-01-23T17:44:21.351Z,-3.20
2019-01-23T17:46:48.619Z,-3.20
2019-01-23T17:49:15.639Z,-3.20
2019-01-23T17:51:42.757Z,-3.10
2019-01-23T17:54:09.811Z,-3.20
2019-01-23T17:56:36.958Z,-3.20
2019-01-23T17:59:04.591Z,-3.20
2019-01-23T18:01:32.020Z,-3.20
2019-01-23T18:03:59.281Z,-3.20
2019-01-23T18:06:26.315Z,-3.20
2019-01-23T18:08:53.903Z,-3.20
2019-01-23T18:11:20.954Z,-3.20
2019-01-23T18:13:48.704Z,-3.20
2019-01-23T18:16:15.816Z,-3.20
2019-01-23T18:18:42.983Z,-3.20
2019-01-23T18:21:10.564Z,-3.20
2019-01-23T18:23:37.934Z,-3.20
2019-01-23T18:26:05.027Z,-3.20
2019-01-23T18:28:32.161Z,-3.20
2019-01-23T18:31:41.459Z,-3.20
2019-01-23T18:34:55.777Z,-3.20
2019-01-23T18:37:59.765Z,-3.20
2019-01-23T18:40:49.081Z,-3.20
2019-01-23T18:43:51.856Z,-3.30
2019-01-23T18:46:44.967Z,-3.20
2019-01-23T18:49:37.159Z,-3.30
2019-01-23T18:52:09.906Z,-3.30
2019-01-23T18:54:37.165Z,-3.30
2019-01-23T18:57:05.675Z,-3.20
2019-01-23T18:59:33.104Z,-3.20
2019-01-23T19:02:00.235Z,-3.20
2019-01-23T19:04:27.337Z,-3.20
2019-01-23T19:06:54.433Z,-3.20
2019-01-23T19:09:21.967Z,-3.20
2019-01-23T19:11:49.309Z,-3.20
2019-01-23T19:14:16.937Z,-3.20
2019-01-23T19:16:44.042Z,-3.20
2019-01-23T19:19:11.042Z,-3.20
2019-01-23T19:21:39.669Z,-3.20
2019-01-23T19:24:06.707Z,-3.20
2019-01-23T19:26:33.806Z,-3.20
2019-01-23T19:29:01.288Z,-3.20
2019-01-23T19:31:28.473Z,-3.30
2019-01-23T19:33:55.919Z,-3.20
2019-01-23T19:36:23.026Z,-3.30
2019-01-23T19:38:50.150Z,-3.30
2019-01-23T19:41:20.392Z,-3.30
2019-01-23T19:43:46.110Z,-3.40
2019-01-23T19:46:13.186Z,-3.40
2019-01-23T19:48:41.533Z,-3.40
2019-01-23T19:51:08.948Z,-3.40
2019-01-23T19:53:36.300Z,-3.40
2019-01-23T19:56:03.604Z,-3.40
2019-01-23T19:58:30.666Z,-3.40
2019-01-23T20:00:57.817Z,-3.50
2019-01-23T20:03:25.751Z,-3.50
2019-01-23T20:05:52.723Z,-3.40
2019-01-23T20:08:19.955Z,-3.40
2019-01-23T20:10:47.154Z,-3.50
2019-01-23T20:13:14.126Z,-3.50
2019-01-23T20:15:41.396Z,-3.50
2019-01-23T20:18:09.222Z,-3.50
2019-01-23T20:20:36.352Z,-3.50
2019-01-23T20:23:03.651Z,-3.50
2019-01-23T20:25:31.209Z,-3.50
2019-01-23T20:27:58.877Z,-3.50
2019-01-23T20:30:37.693Z,-3.50
2019-01-23T20:33:05.044Z,-3.50
2019-01-23T20:35:32.138Z,-3.60
2019-01-23T20:37:59.408Z,-3.60
2019-01-23T20:40:26.533Z,-3.60
2019-01-23T20:42:53.782Z,-3.60
2019-01-23T20:45:21.095Z,-3.60
2019-01-23T20:47:48.419Z,-3.60
2019-01-23T20:50:23.982Z,-3.60
2019-01-23T20:52:51.034Z,-3.70
2019-01-23T20:55:18.339Z,-3.70
2019-01-23T20:57:45.447Z,-3.70
2019-01-23T21:00:15.755Z,-3.70
2019-01-23T21:02:44.279Z,-3.70
2019-01-23T21:05:11.624Z,-3.70
2019-01-23T21:07:38.638Z,-3.10
2019-01-23T21:10:08.007Z,-3.00
2019-01-23T21:12:35.082Z,-2.80
2019-01-23T21:15:02.204Z,-2.80
2019-01-23T21:17:29.207Z,-2.80
2019-01-23T21:19:56.216Z,-2.90
2019-01-23T21:22:24.346Z,-2.80
2019-01-23T21:24:51.574Z,-2.70
2019-01-23T21:27:18.662Z,-2.80
2019-01-23T21:29:45.754Z,-2.80
2019-01-23T21:32:13.103Z,-2.70
2019-01-23T21:34:40.097Z,-2.70
2019-01-23T21:37:07.507Z,-2.80
2019-01-23T21:39:35.918Z,-2.60
2019-01-23T21:42:03.345Z,-2.60
2019-01-23T21:44:30.331Z,-2.60
2019-01-23T21:46:57.646Z,-2.70
2019-01-23T21:49:24.655Z,-3.00
2019-01-23T21:51:51.810Z,-3.00
2019-01-23T21:54:19.147Z,-2.80
2019-01-23T21:56:46.362Z,-3.10
2019-01-23T21:59:13.793Z,-3.20
2019-01-23T22:01:41.100Z,-3.20
2019-01-23T22:04:08.674Z,-3.30
2019-01-23T22:06:36.311Z,-3.30
2019-01-23T22:09:07.050Z,-3.40
2019-01-23T22:11:34.263Z,-3.40
2019-01-23T22:14:01.553Z,-3.50
2019-01-23T22:16:28.647Z,-3.70
2019-01-23T22:18:55.799Z,-3.80
2019-01-23T22:21:23.442Z,-3.90
2019-01-23T22:23:50.632Z,-3.90
2019-01-23T22:26:18.161Z,-4.00
2019-01-23T22:28:45.620Z,-3.90
2019-01-23T22:31:12.724Z,-3.60
2019-01-23T22:33:39.783Z,-3.60
2019-01-23T22:36:06.785Z,-3.20
2019-01-23T22:38:33.859Z,-3.20
2019-01-23T22:41:01.023Z,-3.30
2019-01-23T22:43:31.099Z,-3.00
2019-01-23T22:45:58.118Z,-2.90
2019-01-23T22:48:25.276Z,-3.30
2019-01-23T22:50:52.288Z,-3.60
2019-01-23T22:53:19.378Z,-3.80
2019-01-23T22:55:46.610Z,-4.00
2019-01-23T22:58:13.875Z,-4.10
2019-01-23T23:00:57.914Z,-4.30
2019-01-23T23:03:24.990Z,-4.20
2019-01-23T23:05:52.069Z,-4.30
2019-01-23T23:08:19.069Z,-4.30
2019-01-23T23:10:46.557Z,-4.30
2019-01-23T23:13:13.839Z,-4.30
2019-01-23T23:15:41.061Z,-4.30
2019-01-23T23:18:08.213Z,-4.30
2019-01-23T23:20:35.211Z,-4.40
2019-01-23T23:23:02.512Z,-4.30
2019-01-23T23:25:29.698Z,-4.30
2019-01-23T23:27:56.773Z,-4.30
2019-01-23T23:30:24.581Z,-4.30
2019-01-23T23:32:51.694Z,-4.40
2019-01-23T23:35:19.066Z,-4.40
2019-01-23T23:37:46.306Z,-4.30
2019-01-23T23:40:13.623Z,-4.30
2019-01-23T23:42:41.187Z,-4.30
2019-01-23T23:45:08.938Z,-4.30
2019-01-23T23:47:36.047Z,-4.30
2019-01-23T23:50:03.897Z,-4.30
2019-01-23T23:52:31.014Z,-4.30
2019-01-23T23:54:58.391Z,-4.30
2019-01-23T23:57:25.688Z,-4.40
2019-01-23T23:59:52.879Z,-4.40
